createdAt,value
2022-10-27T00:00:45.394Z,10.69
2022-10-27T00:01:45.449Z,10.63
2022-10-27T00:02:45.415Z,10.63
2022-10-27T00:03:45.371Z,10.60
2022-10-27T00:04:45.368Z,10.69
2022-10-27T00:05:45.359Z,10.53
2022-10-27T00:06:45.355Z,10.54
2022-10-27T00:07:45.341Z,10.59
2022-10-27T00:08:45.340Z,10.60
2022-10-27T00:09:45.325Z,10.57
2022-10-27T00:10:45.407Z,10.57
2022-10-27T00:11:45.377Z,10.59
2022-10-27T00:12:45.305Z,10.68
2022-10-27T00:13:45.303Z,10.60
2022-10-27T00:14:45.291Z,10.63
2022-10-27T00:15:45.287Z,10.67
2022-10-27T00:16:45.271Z,10.68
2022-10-27T00:17:45.267Z,10.72
2022-10-27T00:18:45.260Z,10.60
2022-10-27T00:19:45.253Z,10.68
2022-10-27T00:20:45.248Z,10.68
2022-10-27T00:21:45.261Z,10.78
2022-10-27T00:22:45.233Z,10.72
2022-10-27T00:23:45.220Z,10.74
2022-10-27T00:24:45.215Z,10.79
2022-10-27T00:25:45.207Z,10.74
2022-10-27T00:26:45.203Z,10.76
2022-10-27T00:27:45.194Z,10.74
2022-10-27T00:28:45.199Z,10.81
2022-10-27T00:29:45.180Z,10.79
2022-10-27T00:30:45.167Z,10.63
2022-10-27T00:31:45.165Z,10.67
2022-10-27T00:32:45.156Z,10.54
2022-10-27T00:33:45.149Z,10.56
2022-10-27T00:34:45.142Z,10.69
2022-10-27T00:35:45.133Z,10.67
2022-10-27T00:36:45.127Z,10.67
2022-10-27T00:37:45.116Z,10.59
2022-10-27T00:38:45.111Z,10.74
2022-10-27T00:39:45.103Z,10.72
2022-10-27T00:40:45.096Z,10.63
2022-10-27T00:41:45.089Z,10.74
2022-10-27T00:42:45.081Z,10.69
2022-10-27T00:43:45.072Z,10.68
2022-10-27T00:44:45.060Z,10.68
2022-10-27T00:45:45.060Z,10.75
2022-10-27T00:46:45.055Z,10.72
2022-10-27T00:47:45.043Z,10.72
2022-10-27T00:48:45.035Z,10.61
2022-10-27T00:49:45.029Z,10.64
2022-10-27T00:50:45.036Z,10.67
2022-10-27T00:51:45.009Z,10.60
2022-10-27T00:52:45.006Z,10.71
2022-10-27T00:53:44.996Z,10.71
2022-10-27T00:54:45.012Z,10.72
2022-10-27T00:55:44.984Z,10.61
2022-10-27T00:56:44.975Z,10.64
2022-10-27T00:57:44.971Z,10.71
2022-10-27T00:58:44.963Z,10.74
2022-10-27T00:59:44.954Z,10.67
2022-10-27T01:00:44.997Z,10.67
2022-10-27T01:01:45.065Z,10.59
2022-10-27T01:02:44.935Z,10.54
2022-10-27T01:03:44.923Z,10.63
2022-10-27T01:04:44.915Z,10.60
2022-10-27T01:05:44.905Z,10.59
2022-10-27T01:06:44.902Z,10.46
2022-10-27T01:07:44.895Z,10.42
2022-10-27T01:08:44.895Z,10.57
2022-10-27T01:09:44.881Z,10.44
2022-10-27T01:10:44.872Z,10.46
2022-10-27T01:11:44.863Z,10.44
2022-10-27T01:12:44.857Z,10.49
2022-10-27T01:13:44.848Z,10.44
2022-10-27T01:14:44.843Z,10.44
2022-10-27T01:15:44.846Z,10.44
2022-10-27T01:16:44.828Z,10.44
2022-10-27T01:17:44.821Z,10.49
2022-10-27T01:18:44.810Z,10.44
2022-10-27T01:19:44.804Z,10.48
2022-10-27T01:20:44.797Z,10.53
2022-10-27T01:21:44.795Z,10.48
2022-10-27T01:22:44.792Z,10.46
2022-10-27T01:23:44.774Z,10.49
2022-10-27T01:24:44.767Z,10.38
2022-10-27T01:25:44.760Z,10.48
2022-10-27T01:26:44.750Z,10.41
2022-10-27T01:27:44.743Z,10.49
2022-10-27T01:28:44.741Z,10.46
2022-10-27T01:29:44.755Z,10.46
2022-10-27T01:30:44.721Z,10.41
2022-10-27T01:31:46.830Z,10.44
2022-10-27T01:32:44.702Z,10.46
2022-10-27T01:33:44.698Z,10.42
2022-10-27T01:34:44.689Z,10.40
2022-10-27T01:35:44.683Z,10.37
2022-10-27T01:36:44.677Z,10.37
2022-10-27T01:37:44.668Z,10.33
2022-10-27T01:38:44.674Z,10.33
2022-10-27T01:39:44.654Z,10.35
2022-10-27T01:40:44.645Z,10.46
2022-10-27T01:41:44.639Z,10.38
2022-10-27T01:42:44.631Z,10.42
2022-10-27T01:43:44.623Z,10.37
2022-10-27T01:44:44.619Z,10.44
2022-10-27T01:45:44.620Z,10.46
2022-10-27T01:46:44.604Z,10.49
2022-10-27T01:47:44.593Z,10.49
2022-10-27T01:48:44.582Z,10.46
2022-10-27T01:49:44.580Z,10.44
2022-10-27T01:51:00.520Z,10.44
2022-10-27T01:51:44.567Z,10.46
2022-10-27T01:52:44.577Z,10.40
2022-10-27T01:53:44.550Z,10.40
2022-10-27T01:54:44.541Z,10.31
2022-10-27T01:55:44.540Z,10.33
2022-10-27T01:56:44.524Z,10.33
2022-10-27T01:57:44.521Z,10.31
2022-10-27T01:58:44.508Z,10.26
2022-10-27T01:59:44.501Z,10.42
2022-10-27T02:00:44.534Z,10.34
2022-10-27T02:01:44.487Z,10.19
2022-10-27T02:02:44.476Z,10.38
2022-10-27T02:03:44.470Z,10.22
2022-10-27T02:04:44.474Z,10.26
2022-10-27T02:05:44.456Z,10.38
2022-10-27T02:06:44.456Z,10.28
2022-10-27T02:07:44.439Z,10.33
2022-10-27T02:08:44.432Z,10.30
2022-10-27T02:09:44.423Z,10.35
2022-10-27T02:10:44.419Z,10.34
2022-10-27T02:11:44.431Z,10.31
2022-10-27T02:12:44.401Z,10.41
2022-10-27T02:13:44.412Z,10.31
2022-10-27T02:14:44.390Z,10.46
2022-10-27T02:15:44.374Z,10.33
2022-10-27T02:16:44.372Z,10.34
2022-10-27T02:17:44.363Z,10.38
2022-10-27T02:18:44.369Z,10.30
2022-10-27T02:19:44.351Z,10.37
2022-10-27T02:20:44.341Z,10.46
2022-10-27T02:21:44.336Z,10.37
2022-10-27T02:22:46.211Z,10.30
2022-10-27T02:23:44.318Z,10.40
2022-10-27T02:24:44.311Z,10.44
2022-10-27T02:25:44.315Z,10.35
2022-10-27T02:26:44.295Z,10.34
2022-10-27T02:27:44.287Z,10.34
2022-10-27T02:28:44.280Z,10.34
2022-10-27T02:29:44.271Z,10.25
2022-10-27T02:30:44.275Z,10.22
2022-10-27T02:31:44.258Z,10.20
2022-10-27T02:32:44.270Z,10.20
2022-10-27T02:33:44.241Z,10.26
2022-10-27T02:34:44.234Z,10.19
2022-10-27T02:35:46.395Z,10.20
2022-10-27T02:36:44.214Z,10.28
2022-10-27T02:37:44.213Z,10.22
2022-10-27T02:38:44.203Z,10.20
2022-10-27T02:39:44.201Z,10.15
2022-10-27T02:40:44.189Z,10.22
2022-10-27T02:41:44.180Z,10.23
2022-10-27T02:42:44.178Z,10.26
2022-10-27T02:43:44.159Z,10.22
2022-10-27T02:44:44.157Z,10.22
2022-10-27T02:45:44.151Z,10.30
2022-10-27T02:46:45.473Z,10.34
2022-10-27T02:47:44.134Z,10.25
2022-10-27T02:48:44.126Z,10.34
2022-10-27T02:49:44.120Z,10.25
2022-10-27T02:50:44.114Z,10.40
2022-10-27T02:51:44.101Z,10.34
2022-10-27T02:52:44.095Z,10.34
2022-10-27T02:53:44.097Z,10.38
2022-10-27T02:54:44.081Z,10.30
2022-10-27T02:55:44.071Z,10.25
2022-10-27T02:56:44.064Z,10.28
2022-10-27T02:57:44.052Z,10.20
2022-10-27T02:58:44.051Z,10.10
2022-10-27T02:59:44.164Z,10.10
2022-10-27T03:00:44.081Z,10.17
2022-10-27T03:01:44.101Z,10.09
2022-10-27T03:02:44.022Z,10.10
2022-10-27T03:03:44.011Z,10.07
2022-10-27T03:04:43.997Z,10.04
2022-10-27T03:05:45.573Z,10.07
2022-10-27T03:06:43.987Z,10.05
2022-10-27T03:07:43.979Z,10.05
2022-10-27T03:08:43.973Z,9.95
2022-10-27T03:09:43.964Z,9.95
2022-10-27T03:10:43.956Z,9.97
2022-10-27T03:11:46.169Z,9.95
2022-10-27T03:12:43.939Z,9.94
2022-10-27T03:13:43.927Z,9.94
2022-10-27T03:14:43.943Z,9.97
2022-10-27T03:15:43.916Z,9.89
2022-10-27T03:16:43.907Z,9.95
2022-10-27T03:17:43.903Z,9.92
2022-10-27T03:18:43.897Z,9.94
2022-10-27T03:19:43.887Z,9.94
2022-10-27T03:20:43.874Z,9.79
2022-10-27T03:21:43.874Z,9.89
2022-10-27T03:22:43.862Z,9.83
2022-10-27T03:23:43.853Z,9.77
2022-10-27T03:24:43.846Z,9.87
2022-10-27T03:25:47.380Z,9.84
2022-10-27T03:26:43.843Z,9.82
2022-10-27T03:27:43.830Z,9.87
2022-10-27T03:28:43.824Z,9.83
2022-10-27T03:29:43.874Z,9.79
2022-10-27T03:30:43.823Z,9.84
2022-10-27T03:31:43.801Z,9.72
2022-10-27T03:32:43.784Z,9.73
2022-10-27T03:33:43.777Z,9.74
2022-10-27T03:34:43.769Z,9.66
2022-10-27T03:35:43.758Z,9.74
2022-10-27T03:36:43.810Z,9.73
2022-10-27T03:37:43.741Z,9.69
2022-10-27T03:38:43.743Z,9.74
2022-10-27T03:39:43.745Z,9.65
2022-10-27T03:40:43.719Z,9.66
2022-10-27T03:41:43.729Z,9.65
2022-10-27T03:42:43.704Z,9.62
2022-10-27T03:43:43.704Z,9.59
2022-10-27T03:44:43.687Z,9.61
2022-10-27T03:45:43.681Z,9.61
2022-10-27T03:46:43.672Z,9.65
2022-10-27T03:47:43.658Z,9.54
2022-10-27T03:48:43.664Z,9.51
2022-10-27T03:49:43.647Z,9.44
2022-10-27T03:50:43.640Z,9.44
2022-10-27T03:51:43.632Z,9.50
2022-10-27T03:52:43.623Z,9.48
2022-10-27T03:53:43.616Z,9.55
2022-10-27T03:54:43.613Z,9.54
2022-10-27T03:55:43.600Z,9.51
2022-10-27T03:56:43.589Z,9.55
2022-10-27T03:57:43.584Z,9.54
2022-10-27T03:58:43.579Z,9.48
2022-10-27T03:59:43.564Z,9.58
2022-10-27T04:00:43.608Z,9.46
2022-10-27T04:01:43.659Z,9.44
2022-10-27T04:02:43.543Z,9.55
2022-10-27T04:03:43.534Z,9.50
2022-10-27T04:04:43.528Z,9.43
2022-10-27T04:05:43.520Z,9.54
2022-10-27T04:06:43.506Z,9.44
2022-10-27T04:07:47.133Z,9.37
2022-10-27T04:08:43.494Z,9.46
2022-10-27T04:09:43.487Z,9.37
2022-10-27T04:10:43.484Z,9.36
2022-10-27T04:11:43.472Z,9.41
2022-10-27T04:12:43.466Z,9.47
2022-10-27T04:13:43.453Z,9.48
2022-10-27T04:14:43.447Z,9.48
2022-10-27T04:15:43.458Z,9.59
2022-10-27T04:16:43.431Z,9.44
2022-10-27T04:17:43.431Z,9.41
2022-10-27T04:18:43.497Z,9.50
2022-10-27T04:19:43.414Z,9.50
2022-10-27T04:20:43.396Z,9.43
2022-10-27T04:21:43.391Z,9.46
2022-10-27T04:22:43.386Z,9.43
2022-10-27T04:23:43.370Z,9.43
2022-10-27T04:24:43.367Z,9.39
2022-10-27T04:25:43.357Z,9.34
2022-10-27T04:26:43.350Z,9.37
2022-10-27T04:27:43.341Z,9.32
2022-10-27T04:28:43.335Z,9.31
2022-10-27T04:29:43.345Z,9.36
2022-10-27T04:30:43.318Z,9.31
2022-10-27T04:31:43.310Z,9.40
2022-10-27T04:32:43.306Z,9.26
2022-10-27T04:33:43.291Z,9.31
2022-10-27T04:34:43.281Z,9.34
2022-10-27T04:35:43.275Z,9.26
2022-10-27T04:36:43.269Z,9.40
2022-10-27T04:37:43.263Z,9.26
2022-10-27T04:38:43.253Z,9.29
2022-10-27T04:39:43.247Z,9.28
2022-10-27T04:40:43.233Z,9.18
2022-10-27T04:41:43.246Z,9.34
2022-10-27T04:42:43.222Z,9.32
2022-10-27T04:43:43.257Z,9.31
2022-10-27T04:44:43.209Z,9.36
2022-10-27T04:45:43.197Z,9.31
2022-10-27T04:46:43.195Z,9.29
2022-10-27T04:47:43.179Z,9.40
2022-10-27T04:48:43.172Z,9.34
2022-10-27T04:49:43.178Z,9.29
2022-10-27T04:50:43.155Z,9.36
2022-10-27T04:51:43.147Z,9.37
2022-10-27T04:52:44.466Z,9.29
2022-10-27T04:53:43.127Z,9.31
2022-10-27T04:54:43.121Z,9.31
2022-10-27T04:55:43.112Z,9.21
2022-10-27T04:56:43.114Z,9.25
2022-10-27T04:57:43.098Z,9.28
2022-10-27T04:58:43.089Z,9.34
2022-10-27T04:59:43.087Z,9.32
2022-10-27T05:00:43.067Z,9.34
2022-10-27T05:01:43.110Z,9.37
2022-10-27T05:02:43.102Z,9.48
2022-10-27T05:03:43.048Z,9.44
2022-10-27T05:04:43.041Z,9.44
2022-10-27T05:05:43.034Z,9.55
2022-10-27T05:06:43.030Z,9.44
2022-10-27T05:07:43.013Z,9.40
2022-10-27T05:08:43.066Z,9.51
2022-10-27T05:09:43.008Z,9.47
2022-10-27T05:10:42.993Z,9.48
2022-10-27T05:11:42.989Z,9.59
2022-10-27T05:12:42.976Z,9.56
2022-10-27T05:13:42.974Z,9.66
2022-10-27T05:14:42.956Z,9.73
2022-10-27T05:15:42.950Z,9.59
2022-10-27T05:16:42.957Z,9.68
2022-10-27T05:17:42.935Z,9.66
2022-10-27T05:18:42.924Z,9.65
2022-10-27T05:19:42.919Z,9.68
2022-10-27T05:20:42.910Z,9.65
2022-10-27T05:21:42.901Z,9.62
2022-10-27T05:22:42.896Z,9.62
2022-10-27T05:23:45.322Z,9.65
2022-10-27T05:24:42.877Z,9.66
2022-10-27T05:26:42.861Z,9.66
2022-10-27T05:27:42.850Z,9.62
2022-10-27T05:28:42.844Z,9.62
2022-10-27T05:29:42.842Z,9.56
2022-10-27T05:30:42.828Z,9.59
2022-10-27T05:31:42.822Z,9.54
2022-10-27T05:32:44.915Z,9.58
2022-10-27T05:33:42.818Z,9.58
2022-10-27T05:34:42.793Z,9.55
2022-10-27T05:35:42.788Z,9.58
2022-10-27T05:36:43.902Z,9.58
2022-10-27T05:37:42.772Z,9.58
2022-10-27T05:38:42.770Z,9.43
2022-10-27T05:39:42.752Z,9.50
2022-10-27T05:40:42.754Z,9.51
2022-10-27T05:41:42.738Z,9.43
2022-10-27T05:42:42.733Z,9.41
2022-10-27T05:43:42.824Z,9.46
2022-10-27T05:44:42.713Z,9.54
2022-10-27T05:45:42.707Z,9.44
2022-10-27T05:46:42.700Z,9.58
2022-10-27T05:47:42.684Z,9.68
2022-10-27T05:48:42.685Z,9.65
2022-10-27T05:49:42.669Z,9.58
2022-10-27T05:51:42.659Z,9.64
2022-10-27T05:52:42.650Z,9.73
2022-10-27T05:53:42.643Z,9.69
2022-10-27T05:54:42.629Z,9.69
2022-10-27T05:55:42.626Z,9.76
2022-10-27T05:56:42.614Z,9.84
2022-10-27T05:57:42.608Z,9.86
2022-10-27T05:58:42.603Z,9.74
2022-10-27T05:59:42.593Z,9.73
2022-10-27T06:00:42.596Z,9.80
2022-10-27T06:01:42.705Z,9.80
2022-10-27T06:02:42.568Z,9.83
2022-10-27T06:03:42.563Z,9.82
2022-10-27T06:04:42.564Z,9.69
2022-10-27T06:05:42.550Z,9.80
2022-10-27T06:06:42.537Z,9.77
2022-10-27T06:07:42.520Z,9.79
2022-10-27T06:08:42.516Z,9.82
2022-10-27T06:09:42.512Z,9.82
2022-10-27T06:10:42.508Z,9.92
2022-10-27T06:11:42.493Z,9.89
2022-10-27T06:12:42.487Z,9.91
2022-10-27T06:13:42.490Z,9.82
2022-10-27T06:14:42.496Z,9.95
2022-10-27T06:16:42.454Z,9.97
2022-10-27T06:17:42.448Z,9.97
2022-10-27T06:18:42.464Z,10.02
2022-10-27T06:19:42.430Z,10.09
2022-10-27T06:20:42.421Z,10.13
2022-10-27T06:21:42.412Z,10.09
2022-10-27T06:22:42.406Z,10.13
2022-10-27T06:23:42.397Z,10.13
2022-10-27T06:24:42.389Z,10.05
2022-10-27T06:25:42.383Z,10.15
2022-10-27T06:26:42.374Z,10.10
2022-10-27T06:27:42.361Z,10.07
2022-10-27T06:28:42.352Z,10.12
2022-10-27T06:29:42.349Z,10.10
2022-10-27T06:30:42.350Z,10.17
2022-10-27T06:31:42.333Z,10.17
2022-10-27T06:32:42.324Z,10.23
2022-10-27T06:33:42.317Z,10.25
2022-10-27T06:34:42.314Z,10.42
2022-10-27T06:35:42.297Z,10.30
2022-10-27T06:36:42.293Z,10.34
2022-10-27T06:37:42.287Z,10.48
2022-10-27T06:38:44.421Z,10.40
2022-10-27T06:39:42.274Z,10.53
2022-10-27T06:40:42.264Z,10.60
2022-10-27T06:41:42.352Z,10.56
2022-10-27T06:42:55.312Z,10.56
2022-10-27T06:43:42.239Z,10.63
2022-10-27T06:44:42.232Z,10.63
2022-10-27T06:45:42.222Z,10.74
2022-10-27T06:46:42.221Z,10.71
2022-10-27T06:47:42.209Z,10.76
2022-10-27T06:48:42.205Z,10.69
2022-10-27T06:49:42.190Z,10.79
2022-10-27T06:50:42.194Z,10.76
2022-10-27T06:51:42.168Z,10.84
2022-10-27T06:52:42.169Z,10.84
2022-10-27T06:53:42.168Z,10.89
2022-10-27T06:54:42.154Z,10.96
2022-10-27T06:55:42.145Z,10.92
2022-10-27T06:56:42.137Z,10.94
2022-10-27T06:57:42.136Z,11.04
2022-10-27T06:58:42.129Z,10.99
2022-10-27T06:59:42.113Z,11.17
2022-10-27T07:00:42.111Z,11.18
2022-10-27T07:01:42.158Z,11.19
2022-10-27T07:02:42.098Z,11.25
2022-10-27T07:03:42.081Z,11.27
2022-10-27T07:04:42.076Z,11.25
2022-10-27T07:05:42.077Z,11.33
2022-10-27T07:06:42.063Z,11.43
2022-10-27T07:07:42.070Z,11.44
2022-10-27T07:08:42.132Z,11.54
2022-10-27T07:09:42.042Z,11.50
2022-10-27T07:10:42.033Z,11.68
2022-10-27T07:11:42.043Z,11.60
2022-10-27T07:12:42.018Z,11.65
2022-10-27T07:13:42.010Z,11.75
2022-10-27T07:14:42.009Z,11.80
2022-10-27T07:15:41.998Z,11.77
2022-10-27T07:16:41.994Z,11.86
2022-10-27T07:17:41.977Z,11.86
2022-10-27T07:18:41.976Z,11.95
2022-10-27T07:19:41.970Z,11.95
2022-10-27T07:20:41.960Z,12.10
2022-10-27T07:21:41.956Z,12.04
2022-10-27T07:22:41.946Z,12.13
2022-10-27T07:23:41.941Z,12.18
2022-10-27T07:24:41.927Z,12.20
2022-10-27T07:25:41.971Z,12.28
2022-10-27T07:26:41.912Z,12.32
2022-10-27T07:27:41.910Z,12.45
2022-10-27T07:28:41.902Z,12.42
2022-10-27T07:29:41.896Z,12.46
2022-10-27T07:30:41.889Z,12.47
2022-10-27T07:31:41.881Z,12.57
2022-10-27T07:32:41.875Z,12.55
2022-10-27T07:33:41.869Z,12.57
2022-10-27T07:34:41.871Z,12.62
2022-10-27T07:35:41.854Z,12.65
2022-10-27T07:36:41.865Z,12.79
2022-10-27T07:37:41.840Z,12.83
2022-10-27T07:38:41.860Z,12.91
2022-10-27T07:39:41.823Z,12.95
2022-10-27T07:40:41.819Z,12.95
2022-10-27T07:41:41.818Z,13.00
2022-10-27T07:42:41.808Z,13.04
2022-10-27T07:43:41.803Z,13.11
2022-10-27T07:44:41.796Z,13.19
2022-10-27T07:45:41.790Z,13.18
2022-10-27T07:46:41.819Z,13.22
2022-10-27T07:47:41.774Z,13.31
2022-10-27T07:48:41.763Z,13.39
2022-10-27T07:49:41.777Z,13.38
2022-10-27T07:50:41.795Z,13.46
2022-10-27T07:51:41.747Z,13.50
2022-10-27T07:52:41.740Z,13.59
2022-10-27T07:53:41.735Z,13.62
2022-10-27T07:54:41.726Z,13.67
2022-10-27T07:55:41.721Z,13.68
2022-10-27T07:56:41.745Z,13.72
2022-10-27T07:57:41.708Z,13.79
2022-10-27T07:58:41.703Z,13.87
2022-10-27T07:59:41.696Z,13.83
2022-10-27T08:00:41.689Z,13.95
2022-10-27T08:01:41.812Z,13.93
2022-10-27T08:02:41.676Z,13.89
2022-10-27T08:03:42.340Z,13.97
2022-10-27T08:04:41.672Z,14.03
2022-10-27T08:05:41.657Z,14.00
2022-10-27T08:06:41.666Z,13.99
2022-10-27T08:07:41.649Z,14.08
2022-10-27T08:08:41.642Z,14.12
2022-10-27T08:09:41.630Z,14.08
2022-10-27T08:10:41.626Z,14.10
2022-10-27T08:11:41.617Z,14.05
2022-10-27T08:12:41.623Z,14.10
2022-10-27T08:13:41.610Z,14.10
2022-10-27T08:14:41.607Z,14.17
2022-10-27T08:15:41.679Z,14.23
2022-10-27T08:16:41.653Z,14.18
2022-10-27T08:17:41.582Z,14.26
2022-10-27T08:18:41.581Z,14.18
2022-10-27T08:19:41.570Z,14.22
2022-10-27T08:20:41.574Z,14.18
2022-10-27T08:21:41.562Z,14.18
2022-10-27T08:22:41.570Z,14.28
2022-10-27T08:23:41.551Z,14.23
2022-10-27T08:24:41.547Z,14.25
2022-10-27T08:25:41.536Z,14.30
2022-10-27T08:26:41.532Z,14.20
2022-10-27T08:27:41.523Z,14.28
2022-10-27T08:28:41.519Z,14.37
2022-10-27T08:29:41.515Z,14.40
2022-10-27T08:30:45.837Z,14.36
2022-10-27T08:31:41.503Z,14.48
2022-10-27T08:32:41.510Z,14.44
2022-10-27T08:33:41.488Z,14.53
2022-10-27T08:34:41.485Z,14.55
2022-10-27T08:35:41.480Z,14.60
2022-10-27T08:36:41.473Z,14.62
2022-10-27T08:37:41.469Z,14.70
2022-10-27T08:38:41.472Z,14.70
2022-10-27T08:39:41.456Z,14.77
2022-10-27T08:40:41.528Z,14.72
2022-10-27T08:41:41.442Z,14.86
2022-10-27T08:42:41.442Z,14.85
2022-10-27T08:43:41.446Z,14.86
2022-10-27T08:44:41.446Z,15.02
2022-10-27T08:45:41.434Z,14.92
2022-10-27T08:46:41.424Z,15.06
2022-10-27T08:47:41.411Z,15.10
2022-10-27T08:48:41.410Z,15.10
2022-10-27T08:49:43.465Z,15.17
2022-10-27T08:50:41.397Z,15.17
2022-10-27T08:51:41.392Z,15.27
2022-10-27T08:52:41.391Z,15.24
2022-10-27T08:53:41.382Z,15.28
2022-10-27T08:54:41.379Z,15.43
2022-10-27T08:55:41.368Z,15.42
2022-10-27T08:56:41.364Z,15.51
2022-10-27T08:57:41.353Z,15.51
2022-10-27T08:58:41.356Z,15.54
2022-10-27T08:59:44.188Z,15.46
2022-10-27T09:00:41.345Z,15.57
2022-10-27T09:01:41.473Z,15.61
2022-10-27T09:02:41.438Z,15.70
2022-10-27T09:03:41.328Z,15.76
2022-10-27T09:04:41.322Z,15.75
2022-10-27T09:05:41.316Z,15.76
2022-10-27T09:06:41.309Z,15.79
2022-10-27T09:07:41.306Z,15.86
2022-10-27T09:08:41.303Z,15.94
2022-10-27T09:09:41.385Z,15.91
2022-10-27T09:10:41.295Z,16.08
2022-10-27T09:11:41.293Z,16.02
2022-10-27T09:12:41.281Z,16.12
2022-10-27T09:13:41.280Z,16.13
2022-10-27T09:14:44.115Z,16.17
2022-10-27T09:15:41.270Z,16.15
2022-10-27T09:16:41.260Z,16.24
2022-10-27T09:17:41.266Z,16.23
2022-10-27T09:18:41.255Z,16.31
2022-10-27T09:19:41.246Z,16.28
2022-10-27T09:20:41.251Z,16.32
2022-10-27T09:21:42.130Z,16.35
2022-10-27T09:22:41.242Z,16.46
2022-10-27T09:23:41.223Z,16.38
2022-10-27T09:24:41.226Z,16.47
2022-10-27T09:25:41.253Z,16.47
2022-10-27T09:26:41.222Z,16.53
2022-10-27T09:27:41.210Z,16.49
2022-10-27T09:28:41.207Z,16.53
2022-10-27T09:29:41.198Z,16.56
2022-10-27T09:30:41.194Z,16.53
2022-10-27T09:31:41.182Z,16.58
2022-10-27T09:32:41.182Z,16.57
2022-10-27T09:33:41.179Z,16.64
2022-10-27T09:34:41.176Z,16.61
2022-10-27T09:35:41.170Z,16.66
2022-10-27T09:36:41.163Z,16.74
2022-10-27T09:37:41.164Z,16.79
2022-10-27T09:38:41.159Z,16.90
2022-10-27T09:39:41.156Z,16.99
2022-10-27T09:40:41.143Z,16.93
2022-10-27T09:41:41.141Z,16.96
2022-10-27T09:42:41.134Z,16.96
2022-10-27T09:43:41.138Z,17.01
2022-10-27T09:44:41.131Z,17.04
2022-10-27T09:45:41.124Z,17.01
2022-10-27T09:46:41.124Z,17.15
2022-10-27T09:47:41.117Z,17.11
2022-10-27T09:48:41.114Z,17.09
2022-10-27T09:49:41.101Z,17.22
2022-10-27T09:50:41.108Z,17.24
2022-10-27T09:51:41.098Z,17.19
2022-10-27T09:52:41.093Z,17.30
2022-10-27T09:53:41.090Z,17.29
2022-10-27T09:54:41.094Z,17.36
2022-10-27T09:55:41.099Z,17.44
2022-10-27T09:56:41.080Z,17.44
2022-10-27T09:57:41.078Z,17.54
2022-10-27T09:58:41.076Z,17.48
2022-10-27T09:59:41.063Z,17.65
2022-10-27T10:00:41.069Z,17.64
2022-10-27T10:01:41.127Z,17.64
2022-10-27T10:02:45.666Z,17.63
2022-10-27T10:03:41.051Z,17.72
2022-10-27T10:04:41.053Z,17.79
2022-10-27T10:05:41.038Z,17.79
2022-10-27T10:06:41.038Z,17.82
2022-10-27T10:07:41.025Z,17.90
2022-10-27T10:08:41.026Z,17.90
2022-10-27T10:09:41.032Z,17.97
2022-10-27T10:10:41.016Z,17.98
2022-10-27T10:11:41.030Z,18.00
2022-10-27T10:12:41.013Z,18.04
2022-10-27T10:13:41.012Z,18.08
2022-10-27T10:14:41.022Z,18.08
2022-10-27T10:15:40.999Z,18.10
2022-10-27T10:16:41.001Z,18.18
2022-10-27T10:17:40.989Z,18.22
2022-10-27T10:18:41.027Z,18.22
2022-10-27T10:19:40.984Z,18.19
2022-10-27T10:21:40.977Z,18.33
2022-10-27T10:22:43.131Z,18.34
2022-10-27T10:23:40.970Z,18.33
2022-10-27T10:24:40.968Z,18.38
2022-10-27T10:25:40.964Z,18.47
2022-10-27T10:26:40.955Z,18.43
2022-10-27T10:27:40.950Z,18.49
2022-10-27T10:28:40.953Z,18.63
2022-10-27T10:29:40.949Z,18.56
2022-10-27T10:30:40.952Z,18.63
2022-10-27T10:31:40.941Z,18.60
2022-10-27T10:32:40.947Z,18.45
2022-10-27T10:33:40.935Z,18.59
2022-10-27T10:34:40.933Z,18.65
2022-10-27T10:35:40.950Z,18.74
2022-10-27T10:36:40.921Z,18.73
2022-10-27T10:37:40.920Z,18.70
2022-10-27T10:38:40.916Z,18.58
2022-10-27T10:39:40.925Z,18.71
2022-10-27T10:40:40.921Z,18.65
2022-10-27T10:41:40.908Z,18.77
2022-10-27T10:42:40.910Z,18.89
2022-10-27T10:43:40.904Z,18.86
2022-10-27T10:44:40.901Z,18.80
2022-10-27T10:45:40.937Z,18.81
2022-10-27T10:46:40.890Z,18.96
2022-10-27T10:47:40.887Z,18.95
2022-10-27T10:48:40.889Z,18.90
2022-10-27T10:49:40.879Z,18.98
2022-10-27T10:50:40.890Z,18.84
2022-10-27T10:51:40.880Z,18.95
2022-10-27T10:52:40.880Z,18.84
2022-10-27T10:53:40.868Z,18.90
2022-10-27T10:54:40.868Z,18.98
2022-10-27T10:55:40.870Z,18.95
2022-10-27T10:56:40.854Z,19.00
2022-10-27T10:57:40.854Z,18.99
2022-10-27T10:58:40.853Z,18.93
2022-10-27T10:59:40.848Z,18.98
2022-10-27T11:00:40.895Z,18.96
2022-10-27T11:01:41.027Z,19.02
2022-10-27T11:02:40.843Z,18.92
2022-10-27T11:03:40.836Z,19.14
2022-10-27T11:04:40.833Z,19.09
2022-10-27T11:05:40.833Z,19.15
2022-10-27T11:06:40.831Z,19.24
2022-10-27T11:07:40.823Z,19.22
2022-10-27T11:08:42.338Z,19.16
2022-10-27T11:09:40.817Z,19.19
2022-10-27T11:10:40.832Z,19.30
2022-10-27T11:11:40.811Z,19.18
2022-10-27T11:12:40.820Z,19.33
2022-10-27T11:13:40.811Z,19.39
2022-10-27T11:14:40.803Z,19.45
2022-10-27T11:15:40.814Z,19.41
2022-10-27T11:16:40.792Z,19.48
2022-10-27T11:17:40.791Z,19.54
2022-10-27T11:18:40.791Z,19.58
2022-10-27T11:19:40.788Z,19.66
2022-10-27T11:20:40.793Z,19.69
2022-10-27T11:21:40.806Z,19.69
2022-10-27T11:22:40.818Z,19.63
2022-10-27T11:23:40.777Z,19.66
2022-10-27T11:24:40.773Z,19.66
2022-10-27T11:25:40.772Z,19.70
2022-10-27T11:26:40.765Z,19.69
2022-10-27T11:27:40.761Z,19.74
2022-10-27T11:28:40.761Z,19.71
2022-10-27T11:29:40.756Z,19.73
2022-10-27T11:30:40.761Z,19.71
2022-10-27T11:31:40.751Z,19.77
2022-10-27T11:32:40.750Z,19.71
2022-10-27T11:33:40.754Z,19.71
2022-10-27T11:34:40.745Z,19.85
2022-10-27T11:35:40.742Z,19.82
2022-10-27T11:36:40.745Z,19.86
2022-10-27T11:37:40.731Z,19.81
2022-10-27T11:38:40.734Z,19.79
2022-10-27T11:39:40.729Z,19.86
2022-10-27T11:40:40.728Z,19.82
2022-10-27T11:41:40.732Z,19.86
2022-10-27T11:42:40.723Z,19.82
2022-10-27T11:43:43.570Z,19.88
2022-10-27T11:44:40.716Z,19.91
2022-10-27T11:45:40.714Z,19.84
2022-10-27T11:46:40.769Z,19.88
2022-10-27T11:47:40.709Z,19.99
2022-10-27T11:48:40.703Z,19.96
2022-10-27T11:49:40.703Z,20.02
2022-10-27T11:50:40.701Z,19.95
2022-10-27T11:51:40.700Z,19.95
2022-10-27T11:52:40.697Z,20.00
2022-10-27T11:53:40.695Z,20.03
2022-10-27T11:54:40.702Z,20.00
2022-10-27T11:55:40.689Z,20.00
2022-10-27T11:56:40.685Z,19.91
2022-10-27T11:57:40.690Z,19.86
2022-10-27T11:58:40.676Z,19.88
2022-10-27T11:59:40.678Z,19.84
2022-10-27T12:00:40.676Z,19.85
2022-10-27T12:01:40.745Z,19.85
2022-10-27T12:02:40.704Z,19.69
2022-10-27T12:03:42.420Z,19.70
2022-10-27T12:04:40.665Z,19.84
2022-10-27T12:05:40.675Z,19.88
2022-10-27T12:06:40.662Z,19.84
2022-10-27T12:07:40.655Z,19.85
2022-10-27T12:08:40.662Z,19.85
2022-10-27T12:09:40.649Z,19.86
2022-10-27T12:10:40.749Z,20.04
2022-10-27T12:11:40.679Z,20.04
2022-10-27T12:12:40.650Z,20.10
2022-10-27T12:13:40.695Z,20.16
2022-10-27T12:14:40.639Z,20.04
2022-10-27T12:15:40.643Z,20.09
2022-10-27T12:16:40.635Z,20.13
2022-10-27T12:17:40.634Z,20.16
2022-10-27T12:18:40.637Z,20.16
2022-10-27T12:19:40.640Z,20.18
2022-10-27T12:20:40.621Z,20.18
2022-10-27T12:21:40.624Z,20.16
2022-10-27T12:22:40.647Z,20.16
2022-10-27T12:23:40.618Z,20.19
2022-10-27T12:24:40.615Z,20.16
2022-10-27T12:25:40.613Z,20.22
2022-10-27T12:26:40.616Z,20.18
2022-10-27T12:27:40.607Z,20.24
2022-10-27T12:28:40.606Z,20.19
2022-10-27T12:29:40.606Z,20.16
2022-10-27T12:30:40.598Z,20.19
2022-10-27T12:31:40.596Z,20.16
2022-10-27T12:32:40.597Z,20.18
2022-10-27T12:33:40.593Z,20.09
2022-10-27T12:34:40.602Z,20.11
2022-10-27T12:35:40.589Z,20.09
2022-10-27T12:36:40.586Z,20.10
2022-10-27T12:37:40.593Z,20.13
2022-10-27T12:38:40.581Z,20.06
2022-10-27T12:39:40.578Z,20.09
2022-10-27T12:40:40.582Z,20.10
2022-10-27T12:41:40.567Z,20.14
2022-10-27T12:42:40.579Z,20.06
2022-10-27T12:43:40.570Z,20.07
2022-10-27T12:44:40.562Z,20.06
2022-10-27T12:45:40.569Z,20.10
2022-10-27T12:46:40.561Z,20.02
2022-10-27T12:47:40.558Z,20.11
2022-10-27T12:48:40.562Z,20.06
2022-10-27T12:49:40.553Z,20.16
2022-10-27T12:50:40.552Z,20.14
2022-10-27T12:51:40.542Z,20.06
2022-10-27T12:52:40.541Z,20.09
2022-10-27T12:53:40.542Z,20.13
2022-10-27T12:54:40.617Z,20.09
2022-10-27T12:55:40.544Z,20.07
2022-10-27T12:56:40.543Z,20.10
2022-10-27T12:57:40.536Z,20.09
2022-10-27T12:58:40.533Z,20.07
2022-10-27T12:59:40.528Z,20.09
2022-10-27T13:00:40.527Z,20.07
2022-10-27T13:01:40.611Z,20.13
2022-10-27T13:02:40.649Z,20.07